createdAt,value
2022-09-12T00:02:07.323Z,16.70
2022-09-12T00:04:37.025Z,16.51
2022-09-12T00:07:06.325Z,16.25
2022-09-12T00:09:35.275Z,16.55
2022-09-12T00:12:04.841Z,16.58
2022-09-12T00:14:34.423Z,16.53
2022-09-12T00:17:15.781Z,16.38
2022-09-12T00:19:46.225Z,16.60
2022-09-12T00:22:15.855Z,16.05
2022-09-12T00:24:45.347Z,16.35
2022-09-12T00:27:14.124Z,17.07
2022-09-12T00:29:46.090Z,16.78
2022-09-12T00:32:18.375Z,16.86
2022-09-12T00:34:48.976Z,16.76
2022-09-12T00:37:17.902Z,16.75
2022-09-12T00:39:46.831Z,16.02
2022-09-12T00:42:15.897Z,15.99
2022-09-12T00:44:54.985Z,16.09
2022-09-12T00:47:30.641Z,16.04
2022-09-12T00:50:07.034Z,16.19
2022-09-12T00:52:41.522Z,17.14
2022-09-12T00:55:14.817Z,16.37
2022-09-12T00:57:51.107Z,16.65
2022-09-12T01:00:23.297Z,16.44
2022-09-12T01:02:56.551Z,16.23
2022-09-12T01:05:29.011Z,16.26
2022-09-12T01:07:59.246Z,16.65
2022-09-12T01:10:28.412Z,16.28
2022-09-12T01:12:57.339Z,15.89
2022-09-12T01:15:26.244Z,16.36
2022-09-12T01:18:10.745Z,16.20
2022-09-12T01:21:16.650Z,16.16
2022-09-12T01:24:34.659Z,16.27
2022-09-12T01:27:31.623Z,16.12
2022-09-12T01:30:56.406Z,16.12
2022-09-12T01:33:42.996Z,16.28
2022-09-12T01:36:38.294Z,16.43
2022-09-12T01:39:15.758Z,16.26
2022-09-12T01:41:56.191Z,16.27
2022-09-12T01:44:37.255Z,16.56
2022-09-12T01:47:14.616Z,16.14
2022-09-12T01:49:53.144Z,16.33
2022-09-12T01:52:27.179Z,16.10
2022-09-12T01:55:05.434Z,15.88
2022-09-12T01:57:45.752Z,16.10
2022-09-12T02:00:15.719Z,16.33
2022-09-12T02:02:53.118Z,16.18
2022-09-12T02:05:29.166Z,16.37
2022-09-12T02:08:05.800Z,16.58
2022-09-12T02:10:42.708Z,16.66
2022-09-12T02:13:17.060Z,16.43
2022-09-12T02:15:51.257Z,15.71
2022-09-12T02:18:23.120Z,16.19
2022-09-12T02:20:54.845Z,16.39
2022-09-12T02:23:29.101Z,16.39
2022-09-12T02:26:03.783Z,16.01
2022-09-12T02:28:38.851Z,15.80
2022-09-12T02:31:18.580Z,16.02
2022-09-12T02:34:02.081Z,15.61
2022-09-12T02:36:40.770Z,15.83
2022-09-12T02:39:09.953Z,16.52
2022-09-12T02:41:39.294Z,16.46
2022-09-12T02:44:08.462Z,16.61
2022-09-12T02:46:44.282Z,16.14
2022-09-12T02:49:14.732Z,16.14
2022-09-12T02:51:44.186Z,16.36
2022-09-12T02:54:13.866Z,15.91
2022-09-12T02:56:45.541Z,15.73
2022-09-12T02:59:21.239Z,16.16
2022-09-12T03:02:16.391Z,16.38
2022-09-12T03:05:10.010Z,16.29
2022-09-12T03:08:02.310Z,16.04
2022-09-12T03:10:43.868Z,16.11
2022-09-12T03:13:23.276Z,16.12
2022-09-12T03:16:04.893Z,16.08
2022-09-12T03:18:52.947Z,15.84
2022-09-12T03:21:30.584Z,15.82
2022-09-12T03:24:13.550Z,15.68
2022-09-12T03:26:48.647Z,16.15
2022-09-12T03:29:19.553Z,15.92
2022-09-12T03:31:53.683Z,15.79
2022-09-12T03:34:25.431Z,15.91
2022-09-12T03:36:57.125Z,15.93
2022-09-12T03:39:28.042Z,16.02
2022-09-12T03:41:59.475Z,16.41
2022-09-12T03:44:28.795Z,16.64
2022-09-12T03:46:57.891Z,16.69
2022-09-12T03:49:27.046Z,16.31
2022-09-12T03:51:57.284Z,16.42
2022-09-12T03:54:27.040Z,16.09
2022-09-12T03:56:56.172Z,16.43
2022-09-12T03:59:25.146Z,16.24
2022-09-12T04:01:54.316Z,16.79
2022-09-12T04:04:25.377Z,16.69
2022-09-12T04:06:54.379Z,16.63
2022-09-12T04:09:27.512Z,16.71
2022-09-12T04:11:56.452Z,16.15
2022-09-12T04:14:25.776Z,16.74
2022-09-12T04:16:55.176Z,16.83
2022-09-12T04:19:26.869Z,16.37
2022-09-12T04:21:55.773Z,16.05
2022-09-12T04:24:27.986Z,16.40
2022-09-12T04:26:56.959Z,16.21
2022-09-12T04:29:29.613Z,15.90
2022-09-12T04:31:59.115Z,16.63
2022-09-12T04:34:31.337Z,16.07
2022-09-12T04:37:00.312Z,16.45
2022-09-12T04:39:30.872Z,16.72
2022-09-12T04:42:00.017Z,16.70
2022-09-12T04:44:28.882Z,16.59
2022-09-12T04:46:57.992Z,16.61
2022-09-12T04:49:26.983Z,16.91
2022-09-12T04:51:56.295Z,16.90
2022-09-12T04:54:25.146Z,16.61
2022-09-12T04:56:56.121Z,16.28
2022-09-12T04:59:25.347Z,16.44
2022-09-12T05:01:54.460Z,16.59
2022-09-12T05:04:23.537Z,16.58
2022-09-12T05:06:52.822Z,16.32
2022-09-12T05:09:21.924Z,15.90
2022-09-12T05:12:06.163Z,16.64
2022-09-12T05:14:37.202Z,16.64
2022-09-12T05:17:07.144Z,16.93
2022-09-12T05:19:36.941Z,16.67
2022-09-12T05:22:06.816Z,16.87
2022-09-12T05:24:35.702Z,17.00
2022-09-12T05:27:04.882Z,16.42
2022-09-12T05:29:34.237Z,16.61
2022-09-12T05:32:04.927Z,16.66
2022-09-12T05:34:41.814Z,16.03
2022-09-12T05:37:12.129Z,15.66
2022-09-12T05:39:41.512Z,16.12
2022-09-12T05:42:10.518Z,16.03
2022-09-12T05:44:39.054Z,16.39
2022-09-12T05:47:12.997Z,15.35
2022-09-12T05:49:41.886Z,16.54
2022-09-12T05:52:11.233Z,16.62
2022-09-12T05:54:41.931Z,16.49
2022-09-12T05:57:11.535Z,16.28
2022-09-12T05:59:43.102Z,16.51
2022-09-12T06:02:14.850Z,16.71
2022-09-12T06:04:44.019Z,16.95
2022-09-12T06:07:13.429Z,16.73
2022-09-12T06:09:45.533Z,17.01
2022-09-12T06:12:16.427Z,16.87
2022-09-12T06:14:48.315Z,16.73
2022-09-12T06:17:22.243Z,17.22
2022-09-12T06:19:51.701Z,16.86
2022-09-12T06:22:25.086Z,17.39
2022-09-12T06:24:58.700Z,17.35
2022-09-12T06:27:28.199Z,17.43
2022-09-12T06:29:58.241Z,17.17
2022-09-12T06:32:32.507Z,16.87
2022-09-12T06:35:01.779Z,16.94
2022-09-12T06:37:34.241Z,17.24
2022-09-12T06:40:03.519Z,17.24
2022-09-12T06:42:34.263Z,17.37
2022-09-12T06:45:03.523Z,17.44
2022-09-12T06:47:34.111Z,17.19
2022-09-12T06:50:03.812Z,17.50
2022-09-12T06:52:33.238Z,17.32
2022-09-12T06:55:02.484Z,17.17
2022-09-12T06:58:02.644Z,17.38
2022-09-12T07:00:34.772Z,17.68
2022-09-12T07:03:05.179Z,17.68
2022-09-12T07:05:35.826Z,17.83
2022-09-12T07:08:04.960Z,17.16
2022-09-12T07:10:35.065Z,17.53
2022-09-12T07:13:06.059Z,17.72
2022-09-12T07:15:37.486Z,17.45
2022-09-12T07:18:08.431Z,17.66
2022-09-12T07:20:38.470Z,17.79
2022-09-12T07:23:09.119Z,17.65
2022-09-12T07:25:37.991Z,17.55
2022-09-12T07:28:07.848Z,17.78
2022-09-12T07:30:40.391Z,17.64
2022-09-12T07:33:12.214Z,17.73
2022-09-12T07:35:41.869Z,18.06
2022-09-12T07:38:11.206Z,17.82
2022-09-12T07:40:40.988Z,17.66
2022-09-12T07:43:10.961Z,17.02
2022-09-12T07:45:42.561Z,17.72
2022-09-12T07:48:14.510Z,17.30
2022-09-12T07:50:45.220Z,17.51
2022-09-12T07:53:16.060Z,17.48
2022-09-12T07:55:45.783Z,17.93
2022-09-12T07:58:17.212Z,17.75
2022-09-12T08:00:46.233Z,17.83
2022-09-12T08:03:16.532Z,17.87
2022-09-12T08:05:45.463Z,17.92
2022-09-12T08:08:15.860Z,17.90
2022-09-12T08:10:44.968Z,18.03
2022-09-12T08:13:13.941Z,17.79
2022-09-12T08:15:43.309Z,17.99
2022-09-12T08:18:12.332Z,18.18
2022-09-12T08:20:43.449Z,18.14
2022-09-12T08:23:12.611Z,18.19
2022-09-12T08:25:41.720Z,18.41
2022-09-12T08:28:10.665Z,18.13
2022-09-12T08:30:39.747Z,18.28
2022-09-12T08:33:09.280Z,18.28
2022-09-12T08:35:38.555Z,18.31
2022-09-12T08:38:09.383Z,18.44
2022-09-12T08:40:52.276Z,18.37
2022-09-12T08:43:39.303Z,18.72
2022-09-12T08:46:15.351Z,18.44
2022-09-12T08:48:47.715Z,18.48
2022-09-12T08:51:21.129Z,18.66
2022-09-12T08:53:54.752Z,18.47
2022-09-12T08:56:28.450Z,18.53
2022-09-12T08:59:00.719Z,18.66
2022-09-12T09:01:35.087Z,18.81
2022-09-12T09:04:28.956Z,18.68
2022-09-12T09:07:16.033Z,18.94
2022-09-12T09:10:02.104Z,18.91
2022-09-12T09:12:42.017Z,18.92
2022-09-12T09:15:36.905Z,19.09
2022-09-12T09:18:13.905Z,19.19
2022-09-12T09:20:51.308Z,19.29
2022-09-12T09:23:27.352Z,19.26
2022-09-12T09:26:02.944Z,19.38
2022-09-12T09:28:40.011Z,19.46
2022-09-12T09:31:16.509Z,19.48
2022-09-12T09:33:48.261Z,19.51
2022-09-12T09:36:25.216Z,19.45
2022-09-12T09:39:03.114Z,19.47
2022-09-12T09:41:47.063Z,19.73
2022-09-12T09:44:16.167Z,19.75
2022-09-12T09:46:45.545Z,19.65
2022-09-12T09:49:17.794Z,19.70
2022-09-12T09:51:47.525Z,19.77
2022-09-12T09:54:26.152Z,19.85
2022-09-12T09:56:57.442Z,19.92
2022-09-12T09:59:30.845Z,20.01
2022-09-12T10:02:04.102Z,19.96
2022-09-12T10:04:41.057Z,20.20
2022-09-12T10:07:21.827Z,20.27
2022-09-12T10:10:16.367Z,20.34
2022-09-12T10:12:47.684Z,20.22
2022-09-12T10:15:21.465Z,20.21
2022-09-12T10:17:52.972Z,20.23
2022-09-12T10:20:35.074Z,20.19
2022-09-12T10:23:23.264Z,20.22
2022-09-12T10:26:07.281Z,20.25
2022-09-12T10:28:45.278Z,20.17
2022-09-12T10:31:21.490Z,20.27
2022-09-12T10:33:53.998Z,20.34
2022-09-12T10:36:23.702Z,20.38
2022-09-12T10:38:55.858Z,20.45
2022-09-12T10:41:25.298Z,20.76
2022-09-12T10:44:10.190Z,21.01
2022-09-12T10:46:40.075Z,21.01
2022-09-12T10:49:28.323Z,21.37
2022-09-12T10:52:00.710Z,21.39
2022-09-12T10:54:30.183Z,21.70
2022-09-12T10:57:36.149Z,21.70
2022-09-12T11:00:15.901Z,21.86
2022-09-12T11:03:00.366Z,22.17
2022-09-12T11:05:56.601Z,22.35
2022-09-12T11:08:57.067Z,22.46
2022-09-12T11:11:45.908Z,22.65
2022-09-12T11:14:33.922Z,22.85
2022-09-12T11:17:25.084Z,23.08
2022-09-12T11:20:18.656Z,22.96
2022-09-12T11:23:47.012Z,23.22
2022-09-12T11:26:32.800Z,23.41
2022-09-12T11:29:14.371Z,23.84
2022-09-12T11:32:21.247Z,23.83
2022-09-12T11:35:03.731Z,24.60
2022-09-12T11:37:51.838Z,24.59
2022-09-12T11:40:31.495Z,25.22
2022-09-12T11:43:08.258Z,25.54
2022-09-12T11:45:45.681Z,25.73
2022-09-12T11:48:28.868Z,25.41
2022-09-12T11:51:01.980Z,25.33
2022-09-12T11:53:41.319Z,25.23
2022-09-12T11:56:19.291Z,24.83
2022-09-12T11:59:00.923Z,25.37
2022-09-12T12:01:48.195Z,25.74
2022-09-12T12:04:34.064Z,26.35
2022-09-12T12:07:14.479Z,26.25
2022-09-12T12:10:10.297Z,26.54
2022-09-12T12:13:05.658Z,26.40
2022-09-12T12:15:53.034Z,26.39
2022-09-12T12:18:26.561Z,27.14
2022-09-12T12:20:57.809Z,27.24
2022-09-12T12:23:35.578Z,26.75
2022-09-12T12:26:06.051Z,26.54
2022-09-12T12:28:59.892Z,25.94
2022-09-12T12:31:32.240Z,25.96
2022-09-12T12:34:28.591Z,26.61
2022-09-12T12:37:05.504Z,26.78
2022-09-12T12:40:06.387Z,26.64
2022-09-12T12:43:08.389Z,26.81
2022-09-12T12:46:04.927Z,26.33
2022-09-12T12:48:58.349Z,26.19
2022-09-12T12:51:51.389Z,26.42
2022-09-12T12:54:48.871Z,26.69
2022-09-12T12:57:30.165Z,27.83
2022-09-12T13:00:09.011Z,27.60
2022-09-12T13:02:43.086Z,27.50
2022-09-12T13:05:22.169Z,28.00
2022-09-12T13:07:59.537Z,27.90
2022-09-12T13:10:31.721Z,27.29
2022-09-12T13:13:06.535Z,27.97
2022-09-12T13:15:53.051Z,28.09
2022-09-12T13:18:29.239Z,27.68
2022-09-12T13:21:09.578Z,27.20
2022-09-12T13:23:39.591Z,26.97
2022-09-12T13:26:14.347Z,27.31
2022-09-12T13:28:45.165Z,27.47
2022-09-12T13:31:23.203Z,28.18
2022-09-12T13:33:56.606Z,28.85
2022-09-12T13:37:14.750Z,27.37
2022-09-12T13:39:50.704Z,27.59
2022-09-12T13:42:41.996Z,27.66
2022-09-12T13:45:20.817Z,27.75
2022-09-12T13:47:58.474Z,27.44
2022-09-12T13:50:32.444Z,28.13
2022-09-12T13:53:07.568Z,28.04
2022-09-12T13:55:39.192Z,27.77
2022-09-12T13:58:18.227Z,27.55
2022-09-12T14:01:02.182Z,27.77
2022-09-12T14:03:54.733Z,27.61
2022-09-12T14:06:28.791Z,27.59
2022-09-12T14:09:01.630Z,27.25
2022-09-12T14:11:34.016Z,27.83
2022-09-12T14:14:17.261Z,28.35
2022-09-12T14:16:48.032Z,27.79
2022-09-12T14:19:20.739Z,27.95
2022-09-12T14:21:50.984Z,28.09
2022-09-12T14:24:24.478Z,27.66
2022-09-12T14:26:58.928Z,27.40
2022-09-12T14:32:37.889Z,27.10
2022-09-12T14:35:24.051Z,27.19
2022-09-12T14:37:55.128Z,27.09
2022-09-12T14:40:27.145Z,26.87
2022-09-12T14:43:00.636Z,26.76
2022-09-12T14:45:32.949Z,27.10
2022-09-12T14:48:06.015Z,26.68
2022-09-12T14:50:37.470Z,26.60
2022-09-12T14:53:12.569Z,26.66
2022-09-12T14:55:49.971Z,26.83
2022-09-12T14:58:28.770Z,26.33
2022-09-12T15:01:00.161Z,26.27
2022-09-12T15:03:33.940Z,26.04
2022-09-12T15:06:04.076Z,26.02
2022-09-12T15:08:41.673Z,26.13
2022-09-12T15:11:10.956Z,25.90
2022-09-12T15:13:42.505Z,25.80
2022-09-12T15:16:13.036Z,25.49
2022-09-12T15:18:43.515Z,25.41
2022-09-12T15:21:18.741Z,25.09
2022-09-12T15:23:50.137Z,25.00
2022-09-12T15:26:21.884Z,25.11
2022-09-12T15:28:51.414Z,25.02
2022-09-12T15:31:26.110Z,24.87
2022-09-12T15:33:58.827Z,24.98
2022-09-12T15:36:29.653Z,24.76
2022-09-12T15:39:01.518Z,24.63
2022-09-12T15:41:35.845Z,24.82
2022-09-12T15:44:08.133Z,24.85
2022-09-12T15:46:37.547Z,24.58
2022-09-12T15:49:08.310Z,24.46
2022-09-12T15:52:00.209Z,24.35
2022-09-12T15:57:52.128Z,24.18
2022-09-12T16:00:21.565Z,24.16
2022-09-12T16:02:53.214Z,24.02
2022-09-12T16:05:26.532Z,23.93
2022-09-12T16:07:56.923Z,23.99
2022-09-12T16:10:29.218Z,24.02
2022-09-12T16:13:01.066Z,23.93
2022-09-12T16:15:30.563Z,23.78
2022-09-12T16:17:59.939Z,23.99
2022-09-12T16:20:30.994Z,23.77
2022-09-12T16:23:01.400Z,23.78
2022-09-12T16:25:31.980Z,23.65
2022-09-12T16:28:01.733Z,23.65
2022-09-12T16:30:30.627Z,23.49
2022-09-12T16:32:59.951Z,23.33
2022-09-12T16:35:35.525Z,23.37
2022-09-12T16:38:04.393Z,23.38
2022-09-12T16:40:33.446Z,23.33
2022-09-12T16:43:02.710Z,23.13
2022-09-12T16:45:31.958Z,23.04
2022-09-12T16:48:01.275Z,22.88
2022-09-12T16:50:31.741Z,23.00
2022-09-12T16:53:00.823Z,23.28
2022-09-12T16:55:32.541Z,23.02
2022-09-12T16:58:02.690Z,22.96
2022-09-12T17:00:33.826Z,22.79
2022-09-12T17:03:03.047Z,22.58
2022-09-12T17:05:34.043Z,22.56
2022-09-12T17:08:04.013Z,22.45
2022-09-12T17:10:33.775Z,22.40
2022-09-12T17:13:04.448Z,22.48
2022-09-12T17:15:33.809Z,22.35
2022-09-12T17:18:03.269Z,22.26
2022-09-12T17:20:37.603Z,22.18
2022-09-12T17:23:09.748Z,21.99
2022-09-12T17:25:41.602Z,21.96
2022-09-12T17:28:10.574Z,21.94
2022-09-12T17:30:39.722Z,21.88
2022-09-12T17:33:09.379Z,21.83
2022-09-12T17:35:42.664Z,21.79
2022-09-12T17:38:15.504Z,21.68
2022-09-12T17:40:59.150Z,21.64
2022-09-12T17:43:29.442Z,21.54
2022-09-12T17:45:59.100Z,21.47
2022-09-12T17:48:28.840Z,21.41
2022-09-12T17:50:59.945Z,21.37
2022-09-12T17:53:30.361Z,21.29
2022-09-12T17:56:06.935Z,21.35
2022-09-12T17:58:38.046Z,21.22
2022-09-12T18:01:29.456Z,21.17
2022-09-12T18:04:01.689Z,21.25
2022-09-12T18:06:36.151Z,21.23
2022-09-12T18:09:09.266Z,21.07
2022-09-12T18:11:39.187Z,21.07
2022-09-12T18:14:13.876Z,21.06
2022-09-12T18:16:43.537Z,21.06
2022-09-12T18:19:13.124Z,21.00
2022-09-12T18:21:44.622Z,20.92
2022-09-12T18:24:16.706Z,20.86
2022-09-12T18:26:46.490Z,20.81
2022-09-12T18:29:20.132Z,20.81
2022-09-12T18:31:52.536Z,20.78
2022-09-12T18:34:23.136Z,20.67
2022-09-12T18:36:56.794Z,20.61
2022-09-12T18:39:27.983Z,20.61
2022-09-12T18:41:58.258Z,20.62
2022-09-12T18:44:28.285Z,20.60
2022-09-12T18:47:00.690Z,20.50
2022-09-12T18:49:33.163Z,20.40
2022-09-12T18:52:10.022Z,20.41
2022-09-12T18:54:39.887Z,20.26
2022-09-12T18:57:10.004Z,20.24
2022-09-12T18:59:39.851Z,20.30
2022-09-12T19:02:08.972Z,20.25
2022-09-12T19:04:39.538Z,20.22
2022-09-12T19:07:10.829Z,20.14
2022-09-12T19:09:42.609Z,20.33
2022-09-12T19:12:11.879Z,20.35
2022-09-12T19:14:52.091Z,20.40
2022-09-12T19:17:21.342Z,20.20
2022-09-12T19:19:50.124Z,20.30
2022-09-12T19:22:20.533Z,20.12
2022-09-12T19:24:49.610Z,20.16
2022-09-12T19:27:18.431Z,20.10
2022-09-12T19:29:47.258Z,20.02
2022-09-12T19:32:16.592Z,20.06
2022-09-12T19:34:45.512Z,19.93
2022-09-12T19:37:16.870Z,20.01
2022-09-12T19:39:48.850Z,19.80
2022-09-12T19:42:18.381Z,19.72
2022-09-12T19:44:53.853Z,19.62
2022-09-12T19:47:26.127Z,19.65
2022-09-12T19:49:55.899Z,19.61
2022-09-12T19:52:24.992Z,19.76
2022-09-12T19:54:55.284Z,19.84
2022-09-12T19:57:24.745Z,19.46
2022-09-12T19:59:53.626Z,19.38
2022-09-12T20:02:22.546Z,19.41
2022-09-12T20:04:52.531Z,19.32
2022-09-12T20:07:21.991Z,19.28
2022-09-12T20:09:51.613Z,19.16
2022-09-12T20:12:22.761Z,19.12
2022-09-12T20:14:51.923Z,19.08
2022-09-12T20:17:21.309Z,19.50
2022-09-12T20:19:50.184Z,19.12
2022-09-12T20:22:19.253Z,18.91
2022-09-12T20:24:48.310Z,18.85
2022-09-12T20:27:17.431Z,19.12
2022-09-12T20:29:48.336Z,19.07
2022-09-12T20:32:18.415Z,19.05
2022-09-12T20:34:47.461Z,18.97
2022-09-12T20:37:16.724Z,19.03
2022-09-12T20:39:50.211Z,18.86
2022-09-12T20:42:20.108Z,18.78
2022-09-12T20:44:51.338Z,18.66
2022-09-12T20:47:20.276Z,18.60
2022-09-12T20:49:49.814Z,18.61
2022-09-12T20:52:18.867Z,18.56
2022-09-12T20:54:48.224Z,18.52
2022-09-12T20:57:17.164Z,18.68
2022-09-12T20:59:45.984Z,18.99
2022-09-12T21:02:17.643Z,18.55
2022-09-12T21:04:46.637Z,18.32
2022-09-12T21:07:15.649Z,18.30
2022-09-12T21:09:44.756Z,18.32
2022-09-12T21:12:13.565Z,18.23
2022-09-12T21:14:43.012Z,18.19
2022-09-12T21:17:11.977Z,18.44
2022-09-12T21:19:42.234Z,18.40
2022-09-12T21:22:11.539Z,18.46
2022-09-12T21:24:40.740Z,18.23
2022-09-12T21:27:09.586Z,18.51
2022-09-12T21:29:38.628Z,18.11
2022-09-12T21:32:12.146Z,18.07
2022-09-12T21:34:44.415Z,18.02
2022-09-12T21:37:13.331Z,17.92
2022-09-12T21:39:42.212Z,17.91
2022-09-12T21:42:11.346Z,17.85
2022-09-12T21:44:40.284Z,17.81
2022-09-12T21:47:09.341Z,17.76
2022-09-12T21:49:38.341Z,17.81
2022-09-12T21:52:08.749Z,17.76
2022-09-12T21:54:37.633Z,17.73
2022-09-12T21:57:08.961Z,17.70
2022-09-12T21:59:37.705Z,17.64
2022-09-12T22:02:10.319Z,17.66
2022-09-12T22:04:39.250Z,17.56
2022-09-12T22:07:10.804Z,17.58
2022-09-12T22:09:39.641Z,17.52
2022-09-12T22:12:08.953Z,17.43
2022-09-12T22:14:38.934Z,17.44
2022-09-12T22:17:08.468Z,17.44
2022-09-12T22:19:39.012Z,17.33
2022-09-12T22:22:27.131Z,17.44
2022-09-12T22:24:56.102Z,17.36
2022-09-12T22:27:25.573Z,17.66
2022-09-12T22:29:54.477Z,18.03
2022-09-12T22:32:23.357Z,17.79
2022-09-12T22:34:52.357Z,17.55
2022-09-12T22:37:22.887Z,17.49
2022-09-12T22:39:51.796Z,17.51
2022-09-12T22:42:22.359Z,17.86
2022-09-12T22:44:51.838Z,17.82
2022-09-12T22:47:21.103Z,17.58
2022-09-12T22:49:50.038Z,17.35
2022-09-12T22:52:18.916Z,17.33
2022-09-12T22:54:49.568Z,17.24
2022-09-12T22:57:18.620Z,17.20
2022-09-12T22:59:47.596Z,17.14
2022-09-12T23:02:16.412Z,17.15
2022-09-12T23:04:46.693Z,17.19
2022-09-12T23:07:15.919Z,17.27
2022-09-12T23:09:46.179Z,17.25
2022-09-12T23:12:17.228Z,17.15
2022-09-12T23:14:46.772Z,17.38
2022-09-12T23:17:15.663Z,17.14
2022-09-12T23:19:44.776Z,17.18
2022-09-12T23:22:14.053Z,17.00
2022-09-12T23:24:43.096Z,16.90
2022-09-12T23:27:12.122Z,16.94
2022-09-12T23:29:42.341Z,16.91
2022-09-12T23:32:11.659Z,16.84
2022-09-12T23:34:40.473Z,16.93
2022-09-12T23:37:09.446Z,17.44
2022-09-12T23:39:38.520Z,17.24
2022-09-12T23:42:07.881Z,16.96
2022-09-12T23:44:36.726Z,16.91
2022-09-12T23:47:07.343Z,16.89
2022-09-12T23:49:36.138Z,16.88
2022-09-12T23:52:05.411Z,17.15
2022-09-12T23:54:34.343Z,17.14
2022-09-12T23:57:03.306Z,16.76
2022-09-12T23:59:32.293Z,16.86
